createdAt,value
2023-02-15T00:02:12.305Z,33.10
2023-02-15T00:04:49.331Z,31.87
2023-02-15T00:07:18.054Z,31.03
2023-02-15T00:09:47.611Z,30.37
2023-02-15T00:12:15.820Z,34.57
2023-02-15T00:14:44.039Z,31.60
2023-02-15T00:17:13.535Z,32.37
2023-02-15T00:19:41.958Z,29.83
2023-02-15T00:22:10.162Z,32.10
2023-02-15T00:24:38.317Z,32.97
2023-02-15T00:27:06.500Z,29.67
2023-02-15T00:29:34.736Z,30.73
2023-02-15T00:32:02.848Z,34.20
2023-02-15T00:34:32.344Z,29.97
2023-02-15T00:37:00.479Z,29.30
2023-02-15T00:39:29.863Z,30.23
2023-02-15T00:41:58.052Z,32.47
2023-02-15T00:44:26.201Z,27.07
2023-02-15T00:46:54.414Z,30.17
2023-02-15T00:49:22.678Z,29.87
2023-02-15T00:51:52.209Z,28.90
2023-02-15T00:54:20.357Z,28.10
2023-02-15T00:56:48.484Z,24.77
2023-02-15T00:59:16.619Z,28.17
2023-02-15T01:01:44.750Z,29.47
2023-02-15T01:04:12.976Z,28.60
2023-02-15T01:06:41.146Z,27.80
2023-02-15T01:09:10.677Z,32.00
2023-02-15T01:11:38.836Z,26.93
2023-02-15T01:14:07.131Z,28.67
2023-02-15T01:16:35.304Z,26.63
2023-02-15T01:19:04.442Z,25.37
2023-02-15T01:21:35.218Z,28.90
2023-02-15T01:24:03.393Z,28.10
2023-02-15T01:26:32.960Z,26.00
2023-02-15T01:29:01.090Z,26.13
2023-02-15T01:31:29.311Z,28.20
2023-02-15T01:33:57.550Z,26.67
2023-02-15T01:36:25.692Z,28.67
2023-02-15T01:38:53.833Z,26.43
2023-02-15T01:41:23.842Z,24.43
2023-02-15T01:43:54.455Z,25.07
2023-02-15T01:46:24.931Z,32.10
2023-02-15T01:48:55.604Z,24.33
2023-02-15T01:51:26.131Z,30.63
2023-02-15T01:53:56.498Z,25.23
2023-02-15T01:56:26.087Z,25.17
2023-02-15T01:58:58.670Z,25.43
2023-02-15T02:01:27.751Z,26.07
2023-02-15T02:04:00.330Z,26.83
2023-02-15T02:06:28.935Z,26.43
2023-02-15T02:08:57.440Z,26.00
2023-02-15T02:11:25.616Z,25.07
2023-02-15T02:13:54.148Z,24.47
2023-02-15T02:16:26.698Z,25.30
2023-02-15T02:19:02.197Z,23.20
2023-02-15T02:21:54.186Z,25.70
2023-02-15T02:24:40.252Z,31.77
2023-02-15T02:27:23.287Z,25.70
2023-02-15T02:30:06.744Z,24.47
2023-02-15T02:32:55.841Z,26.13
2023-02-15T02:35:28.219Z,29.80
2023-02-15T02:37:59.280Z,26.07
2023-02-15T02:40:30.085Z,26.50
2023-02-15T02:43:01.652Z,24.87
2023-02-15T02:45:33.003Z,21.97
2023-02-15T02:48:03.534Z,26.40
2023-02-15T02:50:33.128Z,26.73
2023-02-15T02:53:01.813Z,24.60
2023-02-15T02:55:31.808Z,22.57
2023-02-15T02:58:02.687Z,25.00
2023-02-15T03:00:33.837Z,26.13
2023-02-15T03:03:05.994Z,23.40
2023-02-15T03:05:36.676Z,24.43
2023-02-15T03:08:06.971Z,25.87
2023-02-15T03:10:37.062Z,26.37
2023-02-15T03:13:06.361Z,20.53
2023-02-15T03:15:51.750Z,24.47
2023-02-15T03:18:20.562Z,24.40
2023-02-15T03:20:50.595Z,23.23
2023-02-15T03:23:20.509Z,23.93
2023-02-15T03:25:51.264Z,20.47
2023-02-15T03:28:21.967Z,20.70
2023-02-15T03:30:54.048Z,22.50
2023-02-15T03:33:23.376Z,22.87
2023-02-15T03:35:58.187Z,23.30
2023-02-15T03:38:30.906Z,21.00
2023-02-15T03:41:13.680Z,19.43
2023-02-15T03:43:45.996Z,19.33
2023-02-15T03:46:20.558Z,18.37
2023-02-15T03:48:50.391Z,21.13
2023-02-15T03:51:37.300Z,17.47
2023-02-15T03:54:06.831Z,17.43
2023-02-15T03:56:36.713Z,19.03
2023-02-15T03:59:24.097Z,21.53
2023-02-15T04:02:00.376Z,20.00
2023-02-15T04:04:30.859Z,15.33
2023-02-15T04:07:00.357Z,20.43
2023-02-15T04:09:46.009Z,16.97
2023-02-15T04:12:14.489Z,17.80
2023-02-15T04:15:00.294Z,15.67
2023-02-15T04:17:28.481Z,16.57
2023-02-15T04:20:14.209Z,16.03
2023-02-15T04:23:01.619Z,17.97
2023-02-15T04:25:29.812Z,15.90
2023-02-15T04:27:57.954Z,14.90
2023-02-15T04:30:27.476Z,19.50
2023-02-15T04:32:56.056Z,14.50
2023-02-15T04:35:24.262Z,16.20
2023-02-15T04:37:53.797Z,14.50
2023-02-15T04:40:21.944Z,11.23
2023-02-15T04:42:50.800Z,11.57
2023-02-15T04:45:19.109Z,13.13
2023-02-15T04:47:47.355Z,12.60
2023-02-15T04:50:15.557Z,13.43
2023-02-15T04:52:43.710Z,10.43
2023-02-15T04:55:13.209Z,11.37
2023-02-15T04:57:41.335Z,12.50
2023-02-15T05:00:10.629Z,12.07
2023-02-15T05:02:38.817Z,9.17
2023-02-15T05:05:08.130Z,11.60
2023-02-15T05:07:36.272Z,11.40
2023-02-15T05:10:04.669Z,12.70
2023-02-15T05:12:34.268Z,11.23
2023-02-15T05:15:02.421Z,12.83
2023-02-15T05:17:30.582Z,10.03
2023-02-15T05:19:58.713Z,10.37
2023-02-15T05:22:26.855Z,11.30
2023-02-15T05:25:12.746Z,11.67
2023-02-15T05:28:00.108Z,10.33
2023-02-15T05:30:28.471Z,12.70
2023-02-15T05:32:56.759Z,10.13
2023-02-15T05:35:24.968Z,11.10
2023-02-15T05:37:53.137Z,12.30
2023-02-15T05:40:21.285Z,11.23
2023-02-15T05:42:50.765Z,12.63
2023-02-15T05:45:19.065Z,10.50
2023-02-15T05:47:47.230Z,9.10
2023-02-15T05:50:15.384Z,10.97
2023-02-15T05:52:43.502Z,10.50
2023-02-15T05:55:11.647Z,8.27
2023-02-15T05:57:39.847Z,9.50
2023-02-15T06:00:10.852Z,12.03
2023-02-15T06:02:39.513Z,9.47
2023-02-15T06:05:08.405Z,10.33
2023-02-15T06:07:36.558Z,10.03
2023-02-15T06:10:05.324Z,10.60
2023-02-15T06:12:33.463Z,8.27
2023-02-15T06:15:01.755Z,10.83
2023-02-15T06:17:31.376Z,9.93
2023-02-15T06:19:59.528Z,11.63
2023-02-15T06:22:27.737Z,8.60
2023-02-15T06:24:55.886Z,10.77
2023-02-15T06:27:24.014Z,12.07
2023-02-15T06:29:52.207Z,11.23
2023-02-15T06:32:20.364Z,8.40
2023-02-15T06:34:49.865Z,7.90
2023-02-15T06:37:18.010Z,10.70
2023-02-15T06:39:46.210Z,8.93
2023-02-15T06:42:14.379Z,11.00
2023-02-15T06:44:42.508Z,10.57
2023-02-15T06:47:11.597Z,10.27
2023-02-15T06:49:39.772Z,13.63
2023-02-15T06:52:09.305Z,9.67
2023-02-15T06:54:37.442Z,9.73
2023-02-15T06:57:05.616Z,8.57
2023-02-15T06:59:33.767Z,9.77
2023-02-15T07:02:01.910Z,10.53
2023-02-15T07:04:30.976Z,8.90
2023-02-15T07:06:59.202Z,10.80
2023-02-15T07:09:28.801Z,11.20
2023-02-15T07:12:14.636Z,12.27
2023-02-15T07:14:42.821Z,11.90
2023-02-15T07:17:27.480Z,10.37
2023-02-15T07:19:59.098Z,10.87
2023-02-15T07:22:27.254Z,11.63
2023-02-15T07:24:56.755Z,11.27
2023-02-15T07:27:24.883Z,10.10
2023-02-15T07:29:53.019Z,12.07
2023-02-15T07:32:21.210Z,11.67
2023-02-15T07:34:49.427Z,10.80
2023-02-15T07:37:17.596Z,12.27
2023-02-15T07:39:45.743Z,11.57
2023-02-15T07:42:15.246Z,13.57
2023-02-15T07:44:43.380Z,12.63
2023-02-15T07:47:11.522Z,13.90
2023-02-15T07:49:40.147Z,10.27
2023-02-15T07:52:08.370Z,8.87
2023-02-15T07:54:36.511Z,7.87
2023-02-15T07:57:04.669Z,9.63
2023-02-15T07:59:34.136Z,8.57
2023-02-15T08:02:02.268Z,11.03
2023-02-15T08:04:30.398Z,9.50
2023-02-15T08:06:58.550Z,10.10
2023-02-15T08:09:26.703Z,9.90
2023-02-15T08:11:54.873Z,7.47
2023-02-15T08:14:23.681Z,9.97
2023-02-15T08:16:54.178Z,9.27
2023-02-15T08:19:23.446Z,11.33
2023-02-15T08:21:52.326Z,8.63
2023-02-15T08:24:21.946Z,11.40
2023-02-15T08:26:50.516Z,12.77
2023-02-15T08:29:19.747Z,9.93
2023-02-15T08:31:48.335Z,12.47
2023-02-15T08:34:19.025Z,10.27
2023-02-15T08:36:47.200Z,13.20
2023-02-15T08:39:16.496Z,10.37
2023-02-15T08:41:45.561Z,9.73
2023-02-15T08:44:13.998Z,14.53
2023-02-15T08:46:43.022Z,13.57
2023-02-15T08:49:15.636Z,10.60
2023-02-15T08:51:45.326Z,11.67
2023-02-15T08:54:15.330Z,12.30
2023-02-15T08:56:44.181Z,11.27
2023-02-15T08:59:15.188Z,10.77
2023-02-15T09:01:43.455Z,12.50
2023-02-15T09:04:11.636Z,10.60
2023-02-15T09:06:40.238Z,13.63
2023-02-15T09:09:10.146Z,11.60
2023-02-15T09:11:39.181Z,13.47
2023-02-15T09:14:09.063Z,11.17
2023-02-15T09:16:38.322Z,11.60
2023-02-15T09:19:07.142Z,13.83
2023-02-15T09:21:35.922Z,14.53
2023-02-15T09:24:05.535Z,15.20
2023-02-15T09:26:37.565Z,14.50
2023-02-15T09:29:06.180Z,14.37
2023-02-15T09:31:35.579Z,12.40
2023-02-15T09:34:03.932Z,10.70
2023-02-15T09:36:35.022Z,15.23
2023-02-15T09:39:08.233Z,17.00
2023-02-15T09:41:57.006Z,19.53
2023-02-15T09:44:31.221Z,17.00
2023-02-15T09:47:06.545Z,17.33
2023-02-15T09:49:43.038Z,12.57
2023-02-15T09:52:29.617Z,13.67
2023-02-15T09:55:05.353Z,18.43
2023-02-15T09:57:37.221Z,17.17
2023-02-15T10:00:10.421Z,15.53
2023-02-15T10:02:44.601Z,18.10
2023-02-15T10:05:23.046Z,18.13
2023-02-15T10:08:05.276Z,18.70
2023-02-15T10:10:41.186Z,22.50
2023-02-15T10:13:15.529Z,18.80
2023-02-15T10:15:56.629Z,22.00
2023-02-15T10:18:36.597Z,17.03
2023-02-15T10:21:11.063Z,16.30
2023-02-15T10:23:53.108Z,19.53
2023-02-15T10:26:23.625Z,13.93
2023-02-15T10:28:52.616Z,18.73
2023-02-15T10:31:26.929Z,16.07
2023-02-15T10:33:59.716Z,15.20
2023-02-15T10:36:35.497Z,11.47
2023-02-15T10:39:08.575Z,18.00
2023-02-15T10:41:41.819Z,15.27
2023-02-15T10:44:17.483Z,14.40
2023-02-15T10:46:53.886Z,12.27
2023-02-15T10:49:28.857Z,11.37
2023-02-15T10:52:03.724Z,14.80
2023-02-15T10:54:35.449Z,13.93
2023-02-15T10:57:07.068Z,9.43
2023-02-15T10:59:41.541Z,10.67
2023-02-15T11:02:15.777Z,10.00
2023-02-15T11:04:48.210Z,9.13
2023-02-15T11:07:18.997Z,8.93
2023-02-15T11:09:49.265Z,9.53
2023-02-15T11:12:20.041Z,12.23
2023-02-15T11:14:52.095Z,8.10
2023-02-15T11:17:23.766Z,8.43
2023-02-15T11:19:56.860Z,10.13
2023-02-15T11:22:25.116Z,13.17
2023-02-15T11:24:55.352Z,10.20
2023-02-15T11:27:24.600Z,11.10
2023-02-15T11:29:57.870Z,10.57
2023-02-15T11:32:28.929Z,9.03
2023-02-15T11:34:58.660Z,11.53
2023-02-15T11:37:30.449Z,9.90
2023-02-15T11:39:58.600Z,10.50
2023-02-15T11:42:28.045Z,9.80
2023-02-15T11:45:01.803Z,9.70
2023-02-15T11:47:31.281Z,11.23
2023-02-15T11:49:59.501Z,11.93
2023-02-15T11:52:27.678Z,12.07
2023-02-15T11:54:56.052Z,12.07
2023-02-15T11:57:26.902Z,13.23
2023-02-15T11:59:57.973Z,13.13
2023-02-15T12:02:28.462Z,12.43
2023-02-15T12:04:59.493Z,11.70
2023-02-15T12:07:29.504Z,12.50
2023-02-15T12:10:02.272Z,15.03
2023-02-15T12:12:31.288Z,16.50
2023-02-15T12:15:00.041Z,15.90
2023-02-15T12:17:29.476Z,15.33
2023-02-15T12:20:00.242Z,15.90
2023-02-15T12:22:30.163Z,11.90
2023-02-15T12:24:59.190Z,15.33
2023-02-15T12:27:28.108Z,12.80
2023-02-15T12:29:58.196Z,13.03
2023-02-15T12:32:27.346Z,11.70
2023-02-15T12:35:01.063Z,10.20
2023-02-15T12:37:32.850Z,14.63
2023-02-15T12:40:02.094Z,11.00
2023-02-15T12:42:31.398Z,12.40
2023-02-15T12:45:00.889Z,12.33
2023-02-15T12:47:30.282Z,12.03
2023-02-15T12:50:17.799Z,12.87
2023-02-15T12:52:49.383Z,11.93
2023-02-15T12:55:22.320Z,13.97
2023-02-15T12:57:51.407Z,12.07
2023-02-15T13:00:32.602Z,13.57
2023-02-15T13:03:02.618Z,11.47
2023-02-15T13:05:33.647Z,12.83
2023-02-15T13:08:04.146Z,13.27
2023-02-15T13:10:34.157Z,14.10
2023-02-15T13:13:03.913Z,12.33
2023-02-15T13:15:35.605Z,13.87
2023-02-15T13:18:04.562Z,12.47
2023-02-15T13:20:32.788Z,11.20
2023-02-15T13:23:06.032Z,10.80
2023-02-15T13:25:40.304Z,12.73
2023-02-15T13:28:09.706Z,15.20
2023-02-15T13:30:39.574Z,15.10
2023-02-15T13:33:09.436Z,16.17
2023-02-15T13:35:40.949Z,13.30
2023-02-15T13:38:18.190Z,13.27
2023-02-15T13:40:51.338Z,14.90
2023-02-15T13:43:28.558Z,14.73
2023-02-15T13:46:02.225Z,15.17
2023-02-15T13:48:46.897Z,15.90
2023-02-15T13:51:22.582Z,12.93
2023-02-15T13:54:05.056Z,16.80
2023-02-15T13:56:38.970Z,17.87
2023-02-15T13:59:18.772Z,17.47
2023-02-15T14:01:48.419Z,24.10
2023-02-15T14:04:23.119Z,20.03
2023-02-15T14:06:59.332Z,17.90
2023-02-15T14:09:34.529Z,17.47
2023-02-15T14:12:12.389Z,19.27
2023-02-15T14:14:54.992Z,14.77
2023-02-15T14:17:26.017Z,19.43
2023-02-15T14:19:56.356Z,16.43
2023-02-15T14:22:32.822Z,16.53
2023-02-15T14:25:18.046Z,18.60
2023-02-15T14:27:48.936Z,26.03
2023-02-15T14:30:19.910Z,21.93
2023-02-15T14:32:49.624Z,23.60
2023-02-15T14:35:18.483Z,22.80
2023-02-15T14:37:49.302Z,22.57
2023-02-15T14:40:43.896Z,25.57
2023-02-15T14:43:14.379Z,25.13
2023-02-15T14:45:44.615Z,22.33
2023-02-15T14:48:14.972Z,21.43
2023-02-15T14:50:45.240Z,25.20
2023-02-15T14:53:25.158Z,23.40
2023-02-15T14:56:09.143Z,24.70
2023-02-15T14:58:38.952Z,18.67
2023-02-15T15:01:09.896Z,23.37
2023-02-15T15:03:39.223Z,21.53
2023-02-15T15:06:08.325Z,23.33
2023-02-15T15:08:37.721Z,25.20
2023-02-15T15:11:42.115Z,25.30
2023-02-15T15:14:14.438Z,21.73
2023-02-15T15:16:50.733Z,24.23
2023-02-15T15:19:50.875Z,21.37
2023-02-15T15:22:20.966Z,22.77
2023-02-15T15:24:50.006Z,26.00
2023-02-15T15:27:37.077Z,25.17
2023-02-15T15:30:27.389Z,27.47
2023-02-15T15:33:00.741Z,23.37
2023-02-15T15:35:30.761Z,25.77
2023-02-15T15:38:16.631Z,23.30
2023-02-15T15:40:55.322Z,21.97
2023-02-15T15:43:53.489Z,25.80
2023-02-15T15:46:36.014Z,27.30
2023-02-15T15:49:09.110Z,25.70
2023-02-15T15:51:41.738Z,27.40
2023-02-15T15:54:15.406Z,27.30
2023-02-15T15:56:45.945Z,25.10
2023-02-15T15:59:15.865Z,27.70
2023-02-15T16:01:45.202Z,29.80
2023-02-15T16:04:15.649Z,23.27
2023-02-15T16:06:45.756Z,25.33
2023-02-15T16:09:19.867Z,24.30
2023-02-15T16:11:49.203Z,23.47
2023-02-15T16:14:18.795Z,22.17
2023-02-15T16:16:52.629Z,27.30
2023-02-15T16:19:23.863Z,20.90
2023-02-15T16:21:52.351Z,22.20
2023-02-15T16:24:37.144Z,20.53
2023-02-15T16:27:22.961Z,24.93
2023-02-15T16:29:51.158Z,23.40
2023-02-15T16:32:20.647Z,24.83
2023-02-15T16:34:57.304Z,24.27
2023-02-15T16:37:28.012Z,23.30
2023-02-15T16:39:56.978Z,26.77
2023-02-15T16:42:25.428Z,25.17
2023-02-15T16:44:54.592Z,26.23
2023-02-15T16:47:25.255Z,28.27
2023-02-15T16:49:55.097Z,24.67
2023-02-15T16:52:26.010Z,26.83
2023-02-15T16:54:56.578Z,31.20
2023-02-15T16:57:27.290Z,28.50
2023-02-15T16:59:58.169Z,32.00
2023-02-15T17:02:53.124Z,28.40
2023-02-15T17:05:20.875Z,26.80
2023-02-15T17:07:54.831Z,23.67
2023-02-15T17:10:30.795Z,27.97
2023-02-15T17:13:03.493Z,25.70
2023-02-15T17:15:32.982Z,25.37
2023-02-15T17:18:02.153Z,27.37
2023-02-15T17:20:33.384Z,26.50
2023-02-15T17:23:04.025Z,26.07
2023-02-15T17:25:37.628Z,23.77
2023-02-15T17:28:06.248Z,27.33
2023-02-15T17:30:35.765Z,26.63
2023-02-15T17:33:05.145Z,24.90
2023-02-15T17:35:34.660Z,25.67
2023-02-15T17:38:05.910Z,27.97
2023-02-15T17:40:34.932Z,23.50
2023-02-15T17:43:03.296Z,26.67
2023-02-15T17:45:35.894Z,24.67
2023-02-15T17:48:05.466Z,24.93
2023-02-15T17:50:34.268Z,25.47
2023-02-15T17:53:03.023Z,26.13
2023-02-15T17:55:41.216Z,26.60
2023-02-15T17:58:10.279Z,26.43
2023-02-15T18:00:57.752Z,28.20
2023-02-15T18:03:44.210Z,27.90
2023-02-15T18:06:32.929Z,28.40
2023-02-15T18:09:19.038Z,26.37
2023-02-15T18:11:50.547Z,25.00
2023-02-15T18:14:18.712Z,25.43
2023-02-15T18:16:47.142Z,28.67
2023-02-15T18:19:17.856Z,35.23
2023-02-15T18:21:46.335Z,28.63
2023-02-15T18:24:16.842Z,28.50
2023-02-15T18:26:45.035Z,28.00
2023-02-15T18:29:14.679Z,26.50
2023-02-15T18:31:43.466Z,27.97
2023-02-15T18:34:14.658Z,32.00
2023-02-15T18:36:45.878Z,33.53
2023-02-15T18:39:24.678Z,31.67
2023-02-15T18:41:52.847Z,30.50
2023-02-15T18:44:22.375Z,34.27
2023-02-15T18:46:50.513Z,33.77
2023-02-15T18:49:18.695Z,30.90
2023-02-15T18:51:46.920Z,24.90
2023-02-15T18:54:18.687Z,33.30
2023-02-15T18:56:47.155Z,30.30
2023-02-15T18:59:17.361Z,27.77
2023-02-15T19:01:46.974Z,25.47
2023-02-15T19:04:15.137Z,24.17
2023-02-15T19:06:46.220Z,29.87
2023-02-15T19:09:15.799Z,31.33
2023-02-15T19:11:43.961Z,31.43
2023-02-15T19:14:22.194Z,30.33
2023-02-15T19:16:51.742Z,29.73
2023-02-15T19:19:19.955Z,26.87
2023-02-15T19:21:48.223Z,28.70
2023-02-15T19:24:18.595Z,27.40
2023-02-15T19:26:47.487Z,27.93
2023-02-15T19:29:17.801Z,25.30
2023-02-15T19:31:46.070Z,27.00
2023-02-15T19:34:17.038Z,27.63
2023-02-15T19:36:45.718Z,27.43
2023-02-15T19:39:22.961Z,24.23
2023-02-15T19:41:51.333Z,31.17
2023-02-15T19:44:19.466Z,30.63
2023-02-15T19:46:47.683Z,26.87
2023-02-15T19:49:17.213Z,28.47
2023-02-15T19:51:45.472Z,26.77
2023-02-15T19:54:22.679Z,26.13
2023-02-15T19:56:50.804Z,22.67
2023-02-15T19:59:24.555Z,24.77
2023-02-15T20:01:52.918Z,24.53
2023-02-15T20:04:22.614Z,29.57
2023-02-15T20:06:51.904Z,29.57
2023-02-15T20:09:23.431Z,26.10
2023-02-15T20:11:52.170Z,26.63
2023-02-15T20:14:20.417Z,29.07
2023-02-15T20:16:48.587Z,25.53
2023-02-15T20:19:16.827Z,25.67
2023-02-15T20:21:51.592Z,27.83
2023-02-15T20:24:20.889Z,24.73
2023-02-15T20:26:49.037Z,26.30
2023-02-15T20:29:18.477Z,29.97
2023-02-15T20:31:47.149Z,28.07
2023-02-15T20:34:15.383Z,24.03
2023-02-15T20:36:43.625Z,26.17
2023-02-15T20:39:16.410Z,25.93
2023-02-15T20:41:48.119Z,28.30
2023-02-15T20:44:21.100Z,28.00
2023-02-15T20:46:49.475Z,26.20
2023-02-15T20:49:17.788Z,23.80
2023-02-15T20:51:47.343Z,24.63
2023-02-15T20:54:18.689Z,24.27
2023-02-15T20:56:47.197Z,25.73
2023-02-15T20:59:20.713Z,27.57
2023-02-15T21:01:49.047Z,22.33
2023-02-15T21:04:19.174Z,26.97
2023-02-15T21:06:47.582Z,27.07
2023-02-15T21:09:17.645Z,24.87
2023-02-15T21:11:46.188Z,24.93
2023-02-15T21:14:18.454Z,24.43
2023-02-15T21:16:47.277Z,30.53
2023-02-15T21:19:16.061Z,27.30
2023-02-15T21:21:44.654Z,24.87
2023-02-15T21:24:20.293Z,25.23
2023-02-15T21:26:48.819Z,24.37
2023-02-15T21:29:17.717Z,25.43
2023-02-15T21:31:46.093Z,28.10
2023-02-15T21:34:14.698Z,25.20
2023-02-15T21:36:43.688Z,22.00
2023-02-15T21:39:16.200Z,25.10
2023-02-15T21:42:05.170Z,23.03
2023-02-15T21:44:51.101Z,23.63
2023-02-15T21:47:37.920Z,22.70
2023-02-15T21:50:27.243Z,23.70
2023-02-15T21:52:54.580Z,23.20
2023-02-15T21:55:22.813Z,21.90
2023-02-15T21:57:52.382Z,23.80
2023-02-15T22:00:21.491Z,25.23
2023-02-15T22:02:50.908Z,24.60
2023-02-15T22:05:20.559Z,27.00
2023-02-15T22:07:48.891Z,25.40
2023-02-15T22:10:17.290Z,25.47
2023-02-15T22:12:45.899Z,24.93
2023-02-15T22:15:20.992Z,25.37
2023-02-15T22:17:49.379Z,26.83
2023-02-15T22:20:18.803Z,23.77
2023-02-15T22:22:47.292Z,30.00
2023-02-15T22:25:15.931Z,26.00
2023-02-15T22:27:44.657Z,24.70
2023-02-15T22:30:21.417Z,24.40
2023-02-15T22:32:49.608Z,25.77
2023-02-15T22:35:18.969Z,24.33
2023-02-15T22:37:47.104Z,24.77
2023-02-15T22:40:16.424Z,23.17
2023-02-15T22:42:47.227Z,24.30
2023-02-15T22:45:18.021Z,26.07
2023-02-15T22:47:48.696Z,23.80
2023-02-15T22:50:18.931Z,25.77
2023-02-15T22:52:47.193Z,28.80
2023-02-15T22:55:16.788Z,24.00
2023-02-15T22:57:45.346Z,25.60
2023-02-15T23:00:17.221Z,29.30
2023-02-15T23:02:45.631Z,27.47
2023-02-15T23:05:22.576Z,24.73
2023-02-15T23:07:51.103Z,27.73
2023-02-15T23:10:23.166Z,25.77
2023-02-15T23:13:09.433Z,25.17
2023-02-15T23:15:37.631Z,24.23
2023-02-15T23:18:13.319Z,24.23
2023-02-15T23:20:44.294Z,27.33
2023-02-15T23:23:12.893Z,25.53
2023-02-15T23:25:41.325Z,25.03
2023-02-15T23:28:15.719Z,27.73
2023-02-15T23:30:43.872Z,29.90
2023-02-15T23:33:13.141Z,27.27
2023-02-15T23:35:42.881Z,27.27
2023-02-15T23:38:19.432Z,26.87
2023-02-15T23:41:07.706Z,27.77
2023-02-15T23:43:36.144Z,25.77
2023-02-15T23:46:05.151Z,21.87
2023-02-15T23:48:35.731Z,27.73
2023-02-15T23:51:05.709Z,26.10
2023-02-15T23:53:34.446Z,28.23
2023-02-15T23:56:03.074Z,22.90
2023-02-15T23:58:38.056Z,21.23
